sensor_id;sensor_type;location;lat;lon;timestamp;temperature;humidity
1447;DHT22;717;51.522;7.266;2023-02-13T00:01:31;13.90;99.90
1447;DHT22;717;51.522;7.266;2023-02-13T00:04:00;13.90;99.90
1447;DHT22;717;51.522;7.266;2023-02-13T00:06:29;13.80;99.90
1447;DHT22;717;51.522;7.266;2023-02-13T00:09:00;13.80;99.90
1447;DHT22;717;51.522;7.266;2023-02-13T00:11:28;13.80;99.90
1447;DHT22;717;51.522;7.266;2023-02-13T00:13:57;13.90;99.90
1447;DHT22;717;51.522;7.266;2023-02-13T00:16:26;13.80;99.90
1447;DHT22;717;51.522;7.266;2023-02-13T00:18:55;13.80;99.90
1447;DHT22;717;51.522;7.266;2023-02-13T00:21:23;13.90;99.90
1447;DHT22;717;51.522;7.266;2023-02-13T00:23:52;13.80;99.90
1447;DHT22;717;51.522;7.266;2023-02-13T00:26:24;13.80;99.90
1447;DHT22;717;51.522;7.266;2023-02-13T00:28:52;13.80;99.90
1447;DHT22;717;51.522;7.266;2023-02-13T00:31:21;13.80;99.90
1447;DHT22;717;51.522;7.266;2023-02-13T00:33:50;13.80;99.90
1447;DHT22;717;51.522;7.266;2023-02-13T00:36:20;13.80;99.90
1447;DHT22;717;51.522;7.266;2023-02-13T00:38:49;13.80;99.90
1447;DHT22;717;51.522;7.266;2023-02-13T00:41:17;13.80;99.90
1447;DHT22;717;51.522;7.266;2023-02-13T00:43:49;13.80;99.90
1447;DHT22;717;51.522;7.266;2023-02-13T00:46:17;13.80;99.90
1447;DHT22;717;51.522;7.266;2023-02-13T00:48:46;13.80;99.90
1447;DHT22;717;51.522;7.266;2023-02-13T00:51:15;13.80;99.90
1447;DHT22;717;51.522;7.266;2023-02-13T00:53:43;13.80;99.90
1447;DHT22;717;51.522;7.266;2023-02-13T00:56:12;13.80;99.90
1447;DHT22;717;51.522;7.266;2023-02-13T00:58:40;13.80;99.90
1447;DHT22;717;51.522;7.266;2023-02-13T01:01:11;13.80;99.90
1447;DHT22;717;51.522;7.266;2023-02-13T01:03:40;13.80;99.90
1447;DHT22;717;51.522;7.266;2023-02-13T01:06:09;13.80;99.90
1447;DHT22;717;51.522;7.266;2023-02-13T01:08:38;13.80;99.90
1447;DHT22;717;51.522;7.266;2023-02-13T01:11:07;13.80;99.90
1447;DHT22;717;51.522;7.266;2023-02-13T01:13:36;13.80;99.90
1447;DHT22;717;51.522;7.266;2023-02-13T01:16:05;13.80;99.90
1447;DHT22;717;51.522;7.266;2023-02-13T01:18:36;13.80;99.90
1447;DHT22;717;51.522;7.266;2023-02-13T01:21:07;13.80;99.90
1447;DHT22;717;51.522;7.266;2023-02-13T01:23:37;13.70;99.90
1447;DHT22;717;51.522;7.266;2023-02-13T01:26:07;13.80;99.90
1447;DHT22;717;51.522;7.266;2023-02-13T01:28:36;13.80;99.90
1447;DHT22;717;51.522;7.266;2023-02-13T01:31:05;13.80;99.90
1447;DHT22;717;51.522;7.266;2023-02-13T01:33:36;13.80;99.90
1447;DHT22;717;51.522;7.266;2023-02-13T01:36:06;13.80;99.90
1447;DHT22;717;51.522;7.266;2023-02-13T01:38:35;13.80;99.90
1447;DHT22;717;51.522;7.266;2023-02-13T01:41:05;13.80;99.90
1447;DHT22;717;51.522;7.266;2023-02-13T01:43:45;13.80;99.90
1447;DHT22;717;51.522;7.266;2023-02-13T01:46:18;13.70;99.90
1447;DHT22;717;51.522;7.266;2023-02-13T01:48:52;13.70;99.90
1447;DHT22;717;51.522;7.266;2023-02-13T01:51:24;13.70;99.90
1447;DHT22;717;51.522;7.266;2023-02-13T01:53:58;13.70;99.90
1447;DHT22;717;51.522;7.266;2023-02-13T01:56:32;13.70;99.90
1447;DHT22;717;51.522;7.266;2023-02-13T01:59:06;13.70;99.90
1447;DHT22;717;51.522;7.266;2023-02-13T02:01:36;13.60;99.90
1447;DHT22;717;51.522;7.266;2023-02-13T02:04:11;13.60;99.90
1447;DHT22;717;51.522;7.266;2023-02-13T02:06:43;13.60;99.90
1447;DHT22;717;51.522;7.266;2023-02-13T02:09:15;13.60;99.90
1447;DHT22;717;51.522;7.266;2023-02-13T02:11:50;13.60;99.90
1447;DHT22;717;51.522;7.266;2023-02-13T02:14:20;13.60;99.90
1447;DHT22;717;51.522;7.266;2023-02-13T02:16:48;13.60;99.90
1447;DHT22;717;51.522;7.266;2023-02-13T02:19:27;13.60;99.90
1447;DHT22;717;51.522;7.266;2023-02-13T02:22:18;13.50;99.90
1447;DHT22;717;51.522;7.266;2023-02-13T02:25:16;13.50;99.90
1447;DHT22;717;51.522;7.266;2023-02-13T02:28:13;13.50;99.90
1447;DHT22;717;51.522;7.266;2023-02-13T02:31:00;13.50;99.90
1447;DHT22;717;51.522;7.266;2023-02-13T02:33:45;13.40;99.90
1447;DHT22;717;51.522;7.266;2023-02-13T02:36:25;13.40;99.90
1447;DHT22;717;51.522;7.266;2023-02-13T02:39:03;13.40;99.90
1447;DHT22;717;51.522;7.266;2023-02-13T02:41:42;13.40;99.90
1447;DHT22;717;51.522;7.266;2023-02-13T02:44:33;13.40;99.90
1447;DHT22;717;51.522;7.266;2023-02-13T02:47:11;13.40;99.90
1447;DHT22;717;51.522;7.266;2023-02-13T02:50:13;13.40;99.90
1447;DHT22;717;51.522;7.266;2023-02-13T02:52:54;13.40;99.90
1447;DHT22;717;51.522;7.266;2023-02-13T02:55:31;13.40;99.90
1447;DHT22;717;51.522;7.266;2023-02-13T02:58:10;13.40;99.90
1447;DHT22;717;51.522;7.266;2023-02-13T03:00:53;13.40;99.90
1447;DHT22;717;51.522;7.266;2023-02-13T03:03:35;13.40;99.90
1447;DHT22;717;51.522;7.266;2023-02-13T03:06:23;13.40;99.90
1447;DHT22;717;51.522;7.266;2023-02-13T03:08:56;13.40;99.90
1447;DHT22;717;51.522;7.266;2023-02-13T03:11:38;13.40;99.90
1447;DHT22;717;51.522;7.266;2023-02-13T03:14:27;13.40;99.90
1447;DHT22;717;51.522;7.266;2023-02-13T03:16:57;13.40;99.90
1447;DHT22;717;51.522;7.266;2023-02-13T03:19:46;13.40;99.90
1447;DHT22;717;51.522;7.266;2023-02-13T03:22:41;13.40;99.90
1447;DHT22;717;51.522;7.266;2023-02-13T03:25:19;13.30;99.90
1447;DHT22;717;51.522;7.266;2023-02-13T03:27:57;13.30;99.90
1447;DHT22;717;51.522;7.266;2023-02-13T03:30:52;13.30;99.90
1447;DHT22;717;51.522;7.266;2023-02-13T03:33:33;13.30;99.90
1447;DHT22;717;51.522;7.266;2023-02-13T03:36:11;13.20;99.90
1447;DHT22;717;51.522;7.266;2023-02-13T03:39:02;13.20;99.90
1447;DHT22;717;51.522;7.266;2023-02-13T03:41:37;13.20;99.90
1447;DHT22;717;51.522;7.266;2023-02-13T03:44:13;13.20;99.90
1447;DHT22;717;51.522;7.266;2023-02-13T03:46:45;13.10;99.90
1447;DHT22;717;51.522;7.266;2023-02-13T03:49:19;13.10;99.90
1447;DHT22;717;51.522;7.266;2023-02-13T03:52:04;13.20;99.90
1447;DHT22;717;51.522;7.266;2023-02-13T03:54:40;13.10;99.90
1447;DHT22;717;51.522;7.266;2023-02-13T03:57:23;13.10;99.90
1447;DHT22;717;51.522;7.266;2023-02-13T04:00:09;13.00;99.90
1447;DHT22;717;51.522;7.266;2023-02-13T04:02:48;13.00;99.90
1447;DHT22;717;51.522;7.266;2023-02-13T04:05:21;13.00;99.90
1447;DHT22;717;51.522;7.266;2023-02-13T04:07:52;13.00;99.90
1447;DHT22;717;51.522;7.266;2023-02-13T04:10:24;13.00;99.90
1447;DHT22;717;51.522;7.266;2023-02-13T04:13:02;13.00;99.90
1447;DHT22;717;51.522;7.266;2023-02-13T04:15:37;12.90;99.90
1447;DHT22;717;51.522;7.266;2023-02-13T04:18:10;12.90;99.90
1447;DHT22;717;51.522;7.266;2023-02-13T04:20:41;12.90;99.90
1447;DHT22;717;51.522;7.266;2023-02-13T04:23:11;12.90;99.90
1447;DHT22;717;51.522;7.266;2023-02-13T04:25:44;12.90;99.90
1447;DHT22;717;51.522;7.266;2023-02-13T04:28:14;12.80;99.90
1447;DHT22;717;51.522;7.266;2023-02-13T04:30:42;12.80;99.90
1447;DHT22;717;51.522;7.266;2023-02-13T04:33:11;12.80;99.90
1447;DHT22;717;51.522;7.266;2023-02-13T04:35:40;12.80;99.90
1447;DHT22;717;51.522;7.266;2023-02-13T04:38:08;12.70;99.90
1447;DHT22;717;51.522;7.266;2023-02-13T04:40:37;12.70;99.90
1447;DHT22;717;51.522;7.266;2023-02-13T04:43:08;12.70;99.90
1447;DHT22;717;51.522;7.266;2023-02-13T04:45:36;12.70;99.90
1447;DHT22;717;51.522;7.266;2023-02-13T04:48:05;12.70;99.90
1447;DHT22;717;51.522;7.266;2023-02-13T04:50:34;12.70;99.90
1447;DHT22;717;51.522;7.266;2023-02-13T04:53:02;12.80;99.90
1447;DHT22;717;51.522;7.266;2023-02-13T04:55:31;12.70;99.90
1447;DHT22;717;51.522;7.266;2023-02-13T04:58:00;12.60;99.90
1447;DHT22;717;51.522;7.266;2023-02-13T05:00:31;12.60;99.90
1447;DHT22;717;51.522;7.266;2023-02-13T05:03:03;12.60;99.90
1447;DHT22;717;51.522;7.266;2023-02-13T05:05:32;12.50;99.90
1447;DHT22;717;51.522;7.266;2023-02-13T05:08:01;12.50;99.90
1447;DHT22;717;51.522;7.266;2023-02-13T05:10:30;12.50;99.90
1447;DHT22;717;51.522;7.266;2023-02-13T05:13:00;12.60;99.90
1447;DHT22;717;51.522;7.266;2023-02-13T05:15:31;12.60;99.90
1447;DHT22;717;51.522;7.266;2023-02-13T05:17:59;12.60;99.90
1447;DHT22;717;51.522;7.266;2023-02-13T05:20:28;12.60;99.90
1447;DHT22;717;51.522;7.266;2023-02-13T05:22:58;12.60;99.90
1447;DHT22;717;51.522;7.266;2023-02-13T05:25:40;12.70;99.90
1447;DHT22;717;51.522;7.266;2023-02-13T05:28:09;12.70;99.90
1447;DHT22;717;51.522;7.266;2023-02-13T05:30:53;12.80;99.90
1447;DHT22;717;51.522;7.266;2023-02-13T05:33:21;12.80;99.90
1447;DHT22;717;51.522;7.266;2023-02-13T05:35:50;12.80;99.90
1447;DHT22;717;51.522;7.266;2023-02-13T05:38:19;12.80;99.90
1447;DHT22;717;51.522;7.266;2023-02-13T05:40:47;12.80;99.90
1447;DHT22;717;51.522;7.266;2023-02-13T05:43:16;12.80;99.90
1447;DHT22;717;51.522;7.266;2023-02-13T05:45:44;12.80;99.90
1447;DHT22;717;51.522;7.266;2023-02-13T05:48:15;12.80;99.90
1447;DHT22;717;51.522;7.266;2023-02-13T05:50:45;12.80;99.90
1447;DHT22;717;51.522;7.266;2023-02-13T05:53:14;12.80;99.90
1447;DHT22;717;51.522;7.266;2023-02-13T05:55:43;12.80;99.90
1447;DHT22;717;51.522;7.266;2023-02-13T05:58:11;12.80;99.90
1447;DHT22;717;51.522;7.266;2023-02-13T06:00:40;12.80;99.90
1447;DHT22;717;51.522;7.266;2023-02-13T06:03:08;12.80;99.90
1447;DHT22;717;51.522;7.266;2023-02-13T06:05:40;12.80;99.90
1447;DHT22;717;51.522;7.266;2023-02-13T06:08:08;12.80;99.90
1447;DHT22;717;51.522;7.266;2023-02-13T06:10:37;12.80;99.90
1447;DHT22;717;51.522;7.266;2023-02-13T06:13:06;12.80;99.90
1447;DHT22;717;51.522;7.266;2023-02-13T06:15:34;12.80;99.90
1447;DHT22;717;51.522;7.266;2023-02-13T06:18:03;12.80;99.90
1447;DHT22;717;51.522;7.266;2023-02-13T06:20:32;12.80;99.90
1447;DHT22;717;51.522;7.266;2023-02-13T06:23:03;12.80;99.90
1447;DHT22;717;51.522;7.266;2023-02-13T06:25:33;12.80;99.90
1447;DHT22;717;51.522;7.266;2023-02-13T06:28:02;12.80;99.90
1447;DHT22;717;51.522;7.266;2023-02-13T06:30:32;12.80;99.90
1447;DHT22;717;51.522;7.266;2023-02-13T06:33:01;12.80;99.90
1447;DHT22;717;51.522;7.266;2023-02-13T06:35:29;12.80;99.90
1447;DHT22;717;51.522;7.266;2023-02-13T06:37:58;12.80;99.90
1447;DHT22;717;51.522;7.266;2023-02-13T06:40:29;12.80;99.90
1447;DHT22;717;51.522;7.266;2023-02-13T06:42:57;12.80;99.90
1447;DHT22;717;51.522;7.266;2023-02-13T06:45:26;12.80;99.90
1447;DHT22;717;51.522;7.266;2023-02-13T06:47:55;12.80;99.90
1447;DHT22;717;51.522;7.266;2023-02-13T06:50:23;12.90;99.90
1447;DHT22;717;51.522;7.266;2023-02-13T06:52:52;12.90;99.90
1447;DHT22;717;51.522;7.266;2023-02-13T06:55:20;12.90;99.90
1447;DHT22;717;51.522;7.266;2023-02-13T06:57:52;12.90;99.90
1447;DHT22;717;51.522;7.266;2023-02-13T07:00:21;12.90;99.90
1447;DHT22;717;51.522;7.266;2023-02-13T07:02:49;12.80;99.90
1447;DHT22;717;51.522;7.266;2023-02-13T07:05:18;12.90;99.90
1447;DHT22;717;51.522;7.266;2023-02-13T07:07:47;12.80;99.90
1447;DHT22;717;51.522;7.266;2023-02-13T07:10:16;12.80;99.90
1447;DHT22;717;51.522;7.266;2023-02-13T07:12:44;12.80;99.90
1447;DHT22;717;51.522;7.266;2023-02-13T07:15:16;12.80;99.90
1447;DHT22;717;51.522;7.266;2023-02-13T07:17:44;12.80;99.90
1447;DHT22;717;51.522;7.266;2023-02-13T07:20:13;12.80;99.90
1447;DHT22;717;51.522;7.266;2023-02-13T07:22:41;12.80;99.90
1447;DHT22;717;51.522;7.266;2023-02-13T07:25:10;12.80;99.90
1447;DHT22;717;51.522;7.266;2023-02-13T07:27:39;12.80;99.90
1447;DHT22;717;51.522;7.266;2023-02-13T07:30:08;12.80;99.90
1447;DHT22;717;51.522;7.266;2023-02-13T07:32:39;12.80;99.90
1447;DHT22;717;51.522;7.266;2023-02-13T07:35:08;12.70;99.90
1447;DHT22;717;51.522;7.266;2023-02-13T07:37:36;12.80;99.90
1447;DHT22;717;51.522;7.266;2023-02-13T07:40:07;12.80;99.90
1447;DHT22;717;51.522;7.266;2023-02-13T07:42:35;12.80;99.90
1447;DHT22;717;51.522;7.266;2023-02-13T07:45:04;12.80;99.90
1447;DHT22;717;51.522;7.266;2023-02-13T07:47:33;12.80;99.90
1447;DHT22;717;51.522;7.266;2023-02-13T07:50:06;12.80;99.90
1447;DHT22;717;51.522;7.266;2023-02-13T07:52:35;12.80;99.90
1447;DHT22;717;51.522;7.266;2023-02-13T07:55:05;12.80;99.90
1447;DHT22;717;51.522;7.266;2023-02-13T07:57:36;12.80;99.90
1447;DHT22;717;51.522;7.266;2023-02-13T08:00:06;12.70;99.90
1447;DHT22;717;51.522;7.266;2023-02-13T08:02:34;12.70;99.90
1447;DHT22;717;51.522;7.266;2023-02-13T08:05:06;12.80;99.90
1447;DHT22;717;51.522;7.266;2023-02-13T08:07:35;12.80;99.90
1447;DHT22;717;51.522;7.266;2023-02-13T08:10:07;12.80;99.90
1447;DHT22;717;51.522;7.266;2023-02-13T08:12:48;12.80;99.90
1447;DHT22;717;51.522;7.266;2023-02-13T08:15:17;12.80;99.90
1447;DHT22;717;51.522;7.266;2023-02-13T08:17:46;12.80;99.90
1447;DHT22;717;51.522;7.266;2023-02-13T08:20:17;12.80;99.90
1447;DHT22;717;51.522;7.266;2023-02-13T08:22:46;12.70;99.90
1447;DHT22;717;51.522;7.266;2023-02-13T08:25:15;12.80;99.90
1447;DHT22;717;51.522;7.266;2023-02-13T08:27:44;12.80;99.90
1447;DHT22;717;51.522;7.266;2023-02-13T08:30:13;12.80;99.90
1447;DHT22;717;51.522;7.266;2023-02-13T08:32:42;12.80;99.90
1447;DHT22;717;51.522;7.266;2023-02-13T08:35:10;12.80;99.90
1447;DHT22;717;51.522;7.266;2023-02-13T08:37:42;12.80;99.90
1447;DHT22;717;51.522;7.266;2023-02-13T08:40:11;12.80;99.90
1447;DHT22;717;51.522;7.266;2023-02-13T08:42:40;12.90;99.90
1447;DHT22;717;51.522;7.266;2023-02-13T08:45:09;12.90;99.90
1447;DHT22;717;51.522;7.266;2023-02-13T08:47:38;12.90;99.90
1447;DHT22;717;51.522;7.266;2023-02-13T08:50:07;12.90;99.90
1447;DHT22;717;51.522;7.266;2023-02-13T08:52:36;12.90;99.90
1447;DHT22;717;51.522;7.266;2023-02-13T08:55:07;12.90;99.90
1447;DHT22;717;51.522;7.266;2023-02-13T08:57:36;12.90;99.90
1447;DHT22;717;51.522;7.266;2023-02-13T09:00:06;12.90;99.90
1447;DHT22;717;51.522;7.266;2023-02-13T09:02:35;12.90;99.90
1447;DHT22;717;51.522;7.266;2023-02-13T09:05:04;12.90;99.90
1447;DHT22;717;51.522;7.266;2023-02-13T09:07:33;12.90;99.90
1447;DHT22;717;51.522;7.266;2023-02-13T09:10:02;12.90;99.90
1447;DHT22;717;51.522;7.266;2023-02-13T09:12:33;13.00;99.90
1447;DHT22;717;51.522;7.266;2023-02-13T09:15:02;13.00;99.90
1447;DHT22;717;51.522;7.266;2023-02-13T09:17:30;13.00;99.90
1447;DHT22;717;51.522;7.266;2023-02-13T09:19:59;13.00;99.90
1447;DHT22;717;51.522;7.266;2023-02-13T09:22:28;13.00;99.90
1447;DHT22;717;51.522;7.266;2023-02-13T09:24:56;13.00;99.90
1447;DHT22;717;51.522;7.266;2023-02-13T09:27:28;13.00;99.90
1447;DHT22;717;51.522;7.266;2023-02-13T09:30:00;13.00;99.90
1447;DHT22;717;51.522;7.266;2023-02-13T09:32:29;13.00;99.90
1447;DHT22;717;51.522;7.266;2023-02-13T09:34:58;13.10;99.90
1447;DHT22;717;51.522;7.266;2023-02-13T09:37:27;13.10;99.90
1447;DHT22;717;51.522;7.266;2023-02-13T09:39:56;13.10;99.90
1447;DHT22;717;51.522;7.266;2023-02-13T09:42:27;13.10;99.90
1447;DHT22;717;51.522;7.266;2023-02-13T09:45:03;13.10;99.90
1447;DHT22;717;51.522;7.266;2023-02-13T09:47:34;13.10;99.90
1447;DHT22;717;51.522;7.266;2023-02-13T09:50:09;13.10;99.90
1447;DHT22;717;51.522;7.266;2023-02-13T09:52:39;13.20;99.90
1447;DHT22;717;51.522;7.266;2023-02-13T09:55:14;13.20;99.90
1447;DHT22;717;51.522;7.266;2023-02-13T09:57:48;13.20;99.90
1447;DHT22;717;51.522;7.266;2023-02-13T10:00:23;13.20;99.90
1447;DHT22;717;51.522;7.266;2023-02-13T10:03:12;13.20;99.90
1447;DHT22;717;51.522;7.266;2023-02-13T10:05:47;13.20;99.90
1447;DHT22;717;51.522;7.266;2023-02-13T10:08:40;13.30;99.90
1447;DHT22;717;51.522;7.266;2023-02-13T10:11:29;13.30;99.90
1447;DHT22;717;51.522;7.266;2023-02-13T10:14:07;13.30;99.90
1447;DHT22;717;51.522;7.266;2023-02-13T10:16:43;13.40;99.90
1447;DHT22;717;51.522;7.266;2023-02-13T10:19:21;13.40;99.90
1447;DHT22;717;51.522;7.266;2023-02-13T10:21:55;13.40;99.90
1447;DHT22;717;51.522;7.266;2023-02-13T10:24:30;13.40;99.90
1447;DHT22;717;51.522;7.266;2023-02-13T10:27:05;13.50;99.90
1447;DHT22;717;51.522;7.266;2023-02-13T10:29:43;13.50;99.90
1447;DHT22;717;51.522;7.266;2023-02-13T10:32:30;13.50;99.90
1447;DHT22;717;51.522;7.266;2023-02-13T10:35:20;13.50;99.90
1447;DHT22;717;51.522;7.266;2023-02-13T10:37:51;13.50;99.90
1447;DHT22;717;51.522;7.266;2023-02-13T10:40:26;13.60;99.90
1447;DHT22;717;51.522;7.266;2023-02-13T10:43:01;13.60;99.90
1447;DHT22;717;51.522;7.266;2023-02-13T10:45:55;13.70;99.90
1447;DHT22;717;51.522;7.266;2023-02-13T10:48:38;13.70;99.90
1447;DHT22;717;51.522;7.266;2023-02-13T10:51:18;13.70;99.90
1447;DHT22;717;51.522;7.266;2023-02-13T10:53:58;13.80;99.90
1447;DHT22;717;51.522;7.266;2023-02-13T10:56:39;13.80;99.90
1447;DHT22;717;51.522;7.266;2023-02-13T10:59:29;13.90;99.90
1447;DHT22;717;51.522;7.266;2023-02-13T11:02:02;13.90;
1447;DHT22;717;51.522;7.266;2023-02-13T11:04:38;14.00;99.90
1447;DHT22;717;51.522;7.266;2023-02-13T11:07:13;14.00;99.90
1447;DHT22;717;51.522;7.266;2023-02-13T11:09:46;14.00;99.90
1447;DHT22;717;51.522;7.266;2023-02-13T11:12:24;14.10;99.90
1447;DHT22;717;51.522;7.266;2023-02-13T11:14:55;14.10;99.90
1447;DHT22;717;51.522;7.266;2023-02-13T11:17:25;14.10;99.90
1447;DHT22;717;51.522;7.266;2023-02-13T11:19:59;14.20;99.90
1447;DHT22;717;51.522;7.266;2023-02-13T11:22:32;14.20;99.90
1447;DHT22;717;51.522;7.266;2023-02-13T11:25:05;14.30;99.90
1447;DHT22;717;51.522;7.266;2023-02-13T11:27:36;14.40;99.90
1447;DHT22;717;51.522;7.266;2023-02-13T11:30:29;14.50;99.90
1447;DHT22;717;51.522;7.266;2023-02-13T11:33:00;14.60;99.90
1447;DHT22;717;51.522;7.266;2023-02-13T11:35:32;14.60;99.90
1447;DHT22;717;51.522;7.266;2023-02-13T11:38:12;14.70;99.90
1447;DHT22;717;51.522;7.266;2023-02-13T11:40:49;14.80;99.90
1447;DHT22;717;51.522;7.266;2023-02-13T11:43:29;14.90;99.90
1447;DHT22;717;51.522;7.266;2023-02-13T11:46:02;14.90;99.90
1447;DHT22;717;51.522;7.266;2023-02-13T11:48:31;15.00;99.90
1447;DHT22;717;51.522;7.266;2023-02-13T11:51:03;15.00;99.90
1447;DHT22;717;51.522;7.266;2023-02-13T11:53:35;15.10;99.90
1447;DHT22;717;51.522;7.266;2023-02-13T11:56:09;15.10;99.90
1447;DHT22;717;51.522;7.266;2023-02-13T11:58:39;15.20;99.90
1447;DHT22;717;51.522;7.266;2023-02-13T12:01:25;15.30;99.90
1447;DHT22;717;51.522;7.266;2023-02-13T12:04:02;15.30;99.90
1447;DHT22;717;51.522;7.266;2023-02-13T12:06:34;15.40;99.90
1447;DHT22;717;51.522;7.266;2023-02-13T12:09:12;15.50;99.90
1447;DHT22;717;51.522;7.266;2023-02-13T12:11:45;15.50;99.90
1447;DHT22;717;51.522;7.266;2023-02-13T12:14:19;15.60;99.90
1447;DHT22;717;51.522;7.266;2023-02-13T12:16:50;15.70;99.90
1447;DHT22;717;51.522;7.266;2023-02-13T12:19:24;15.70;99.90
1447;DHT22;717;51.522;7.266;2023-02-13T12:25:25;15.90;99.90
1447;DHT22;717;51.522;7.266;2023-02-13T12:28:05;15.90;99.90
1447;DHT22;717;51.522;7.266;2023-02-13T12:30:51;16.00;99.90
1447;DHT22;717;51.522;7.266;2023-02-13T12:33:39;16.10;99.90
1447;DHT22;717;51.522;7.266;2023-02-13T12:36:15;16.20;99.90
1447;DHT22;717;51.522;7.266;2023-02-13T12:38:57;16.20;99.90
1447;DHT22;717;51.522;7.266;2023-02-13T12:41:39;16.30;99.90
1447;DHT22;717;51.522;7.266;2023-02-13T12:44:24;16.40;99.90
1447;DHT22;717;51.522;7.266;2023-02-13T12:47:04;16.40;99.90
1447;DHT22;717;51.522;7.266;2023-02-13T12:49:57;16.50;99.90
1447;DHT22;717;51.522;7.266;2023-02-13T12:52:45;16.60;99.90
1447;DHT22;717;51.522;7.266;2023-02-13T12:55:40;16.60;99.90
1447;DHT22;717;51.522;7.266;2023-02-13T12:58:28;16.70;99.90
1447;DHT22;717;51.522;7.266;2023-02-13T13:01:06;16.80;99.90
1447;DHT22;717;51.522;7.266;2023-02-13T13:03:48;16.90;99.90
1447;DHT22;717;51.522;7.266;2023-02-13T13:09:34;17.00;99.90
1447;DHT22;717;51.522;7.266;2023-02-13T13:12:29;17.00;99.90
1447;DHT22;717;51.522;7.266;2023-02-13T13:15:09;17.10;99.90
1447;DHT22;717;51.522;7.266;2023-02-13T13:17:53;17.20;99.90
1447;DHT22;717;51.522;7.266;2023-02-13T13:20:43;17.20;99.90
1447;DHT22;717;51.522;7.266;2023-02-13T13:23:19;17.30;99.90
1447;DHT22;717;51.522;7.266;2023-02-13T13:25:54;17.40;99.90
1447;DHT22;717;51.522;7.266;2023-02-13T13:28:28;17.40;99.90
1447;DHT22;717;51.522;7.266;2023-02-13T13:31:02;17.40;99.90
1447;DHT22;717;51.522;7.266;2023-02-13T13:33:32;17.40;99.90
1447;DHT22;717;51.522;7.266;2023-02-13T13:36:06;17.50;99.90
1447;DHT22;717;51.522;7.266;2023-02-13T13:38:47;17.60;99.90
1447;DHT22;717;51.522;7.266;2023-02-13T13:41:24;17.60;99.90
1447;DHT22;717;51.522;7.266;2023-02-13T13:44:08;17.70;99.90
1447;DHT22;717;51.522;7.266;2023-02-13T13:46:49;17.70;99.90
1447;DHT22;717;51.522;7.266;2023-02-13T13:49:28;17.70;99.90
1447;DHT22;717;51.522;7.266;2023-02-13T13:52:26;17.70;99.90
1447;DHT22;717;51.522;7.266;2023-02-13T13:54:56;17.80;99.90
1447;DHT22;717;51.522;7.266;2023-02-13T13:57:27;17.80;99.90
1447;DHT22;717;51.522;7.266;2023-02-13T14:00:28;17.80;99.90
1447;DHT22;717;51.522;7.266;2023-02-13T14:03:29;17.80;99.90
1447;DHT22;717;51.522;7.266;2023-02-13T14:06:04;17.90;99.90
1447;DHT22;717;51.522;7.266;2023-02-13T14:11:50;18.00;99.90
1447;DHT22;717;51.522;7.266;2023-02-13T14:14:43;17.90;99.90
1447;DHT22;717;51.522;7.266;2023-02-13T14:17:13;18.00;99.90
1447;DHT22;717;51.522;7.266;2023-02-13T14:19:49;18.00;99.90
1447;DHT22;717;51.522;7.266;2023-02-13T14:22:30;18.10;99.90
1447;DHT22;717;51.522;7.266;2023-02-13T14:25:03;18.10;99.90
1447;DHT22;717;51.522;7.266;2023-02-13T14:27:34;18.10;99.90
1447;DHT22;717;51.522;7.266;2023-02-13T14:30:21;18.10;99.90
1447;DHT22;717;51.522;7.266;2023-02-13T14:32:53;18.20;99.90
1447;DHT22;717;51.522;7.266;2023-02-13T14:35:27;18.20;99.90
1447;DHT22;717;51.522;7.266;2023-02-13T14:37:58;18.30;99.90
1447;DHT22;717;51.522;7.266;2023-02-13T14:40:45;18.30;99.90
1447;DHT22;717;51.522;7.266;2023-02-13T14:43:21;18.30;99.90
1447;DHT22;717;51.522;7.266;2023-02-13T14:45:56;18.30;99.90
1447;DHT22;717;51.522;7.266;2023-02-13T14:48:34;18.30;99.90
1447;DHT22;717;51.522;7.266;2023-02-13T14:51:11;18.40;99.90
1447;DHT22;717;51.522;7.266;2023-02-13T14:53:50;18.40;99.90
1447;DHT22;717;51.522;7.266;2023-02-13T14:56:20;18.40;99.90
1447;DHT22;717;51.522;7.266;2023-02-13T14:58:52;18.50;99.90
1447;DHT22;717;51.522;7.266;2023-02-13T15:01:29;18.50;99.90
1447;DHT22;717;51.522;7.266;2023-02-13T15:04:05;18.50;99.90
1447;DHT22;717;51.522;7.266;2023-02-13T15:06:39;18.50;99.90
1447;DHT22;717;51.522;7.266;2023-02-13T15:09:27;18.50;99.90
1447;DHT22;717;51.522;7.266;2023-02-13T15:11:58;18.50;99.90
1447;DHT22;717;51.522;7.266;2023-02-13T15:14:31;18.50;99.90
1447;DHT22;717;51.522;7.266;2023-02-13T15:17:05;18.50;99.90
1447;DHT22;717;51.522;7.266;2023-02-13T15:19:36;18.50;99.90
1447;DHT22;717;51.522;7.266;2023-02-13T15:22:17;18.50;99.90
1447;DHT22;717;51.522;7.266;2023-02-13T15:24:48;18.50;99.90
1447;DHT22;717;51.522;7.266;2023-02-13T15:27:19;18.40;99.90
1447;DHT22;717;51.522;7.266;2023-02-13T15:29:57;18.40;99.90
1447;DHT22;717;51.522;7.266;2023-02-13T15:32:28;18.40;99.90
1447;DHT22;717;51.522;7.266;2023-02-13T15:34:58;18.40;99.90
1447;DHT22;717;51.522;7.266;2023-02-13T15:37:30;18.30;99.90
1447;DHT22;717;51.522;7.266;2023-02-13T15:40:21;18.30;99.90
1447;DHT22;717;51.522;7.266;2023-02-13T15:42:51;18.30;99.90
1447;DHT22;717;51.522;7.266;2023-02-13T15:45:22;18.20;99.90
1447;DHT22;717;51.522;7.266;2023-02-13T15:47:52;18.20;99.90
1447;DHT22;717;51.522;7.266;2023-02-13T15:50:27;18.10;99.90
1447;DHT22;717;51.522;7.266;2023-02-13T15:53:02;18.10;99.90
1447;DHT22;717;51.522;7.266;2023-02-13T15:55:33;18.10;99.90
1447;DHT22;717;51.522;7.266;2023-02-13T15:58:03;18.10;99.90
1447;DHT22;717;51.522;7.266;2023-02-13T16:00:34;18.00;99.90
1447;DHT22;717;51.522;7.266;2023-02-13T16:03:06;18.00;99.90
1447;DHT22;717;51.522;7.266;2023-02-13T16:05:37;18.00;99.90
1447;DHT22;717;51.522;7.266;2023-02-13T16:08:31;17.90;99.90
1447;DHT22;717;51.522;7.266;2023-02-13T16:11:28;17.90;99.90
1447;DHT22;717;51.522;7.266;2023-02-13T16:14:06;17.80;99.90
1447;DHT22;717;51.522;7.266;2023-02-13T16:16:43;17.80;99.90
1447;DHT22;717;51.522;7.266;2023-02-13T16:19:23;17.70;99.90
1447;DHT22;717;51.522;7.266;2023-02-13T16:21:53;17.70;99.90
1447;DHT22;717;51.522;7.266;2023-02-13T16:24:27;17.70;99.90
1447;DHT22;717;51.522;7.266;2023-02-13T16:26:56;17.70;99.90
1447;DHT22;717;51.522;7.266;2023-02-13T16:29:25;17.60;99.90
1447;DHT22;717;51.522;7.266;2023-02-13T16:32:04;17.60;99.90
1447;DHT22;717;51.522;7.266;2023-02-13T16:34:35;17.50;99.90
1447;DHT22;717;51.522;7.266;2023-02-13T16:39:50;17.50;99.90
1447;DHT22;717;51.522;7.266;2023-02-13T16:42:19;17.40;99.90
1447;DHT22;717;51.522;7.266;2023-02-13T16:44:47;17.30;99.90
1447;DHT22;717;51.522;7.266;2023-02-13T16:47:21;17.30;99.90
1447;DHT22;717;51.522;7.266;2023-02-13T16:49:53;17.30;99.90
1447;DHT22;717;51.522;7.266;2023-02-13T16:52:24;17.20;99.90
1447;DHT22;717;51.522;7.266;2023-02-13T16:54:58;17.20;99.90
1447;DHT22;717;51.522;7.266;2023-02-13T16:57:29;17.10;99.90
1447;DHT22;717;51.522;7.266;2023-02-13T17:00:03;17.00;99.90
1447;DHT22;717;51.522;7.266;2023-02-13T17:02:34;17.00;99.90
1447;DHT22;717;51.522;7.266;2023-02-13T17:05:27;16.90;99.90
1447;DHT22;717;51.522;7.266;2023-02-13T17:07:56;16.90;99.90
1447;DHT22;717;51.522;7.266;2023-02-13T17:10:30;16.80;99.90
1447;DHT22;717;51.522;7.266;2023-02-13T17:13:00;16.80;99.90
1447;DHT22;717;51.522;7.266;2023-02-13T17:15:30;16.70;99.90